Архив погоды в Жижгине

Метеограмма Жижгин
Вторник, 14 Августа
Время местн. Темп Ветер Видим Явления Облачность нижн/средн/верх Атм. давл. Влжн Точка росы ВНГО R Сост. почвы Tg s
Напр Скр Прв ур.ст ур.м изм
21:00 +10.3° З,С-З 2 - 20 км - облачно 756 758 +0.7 78% +6.7° 600 м - - - -
18:00 +10.9° С-З 2 - 20 км - облачно с прояснениями 755 757 +0.9 76% +6.8° 600 м - - - -
15:00 +11.7° С 2 - 20 км - переменная облачность 754 756 +1.2 68% +5.9° 1 км - - - -
12:00 +11.9° С 2 - 20 км - облачно с прояснениями 753 755 +1.1 69% +6.4° 1 км - - - -
09:00 +11.3° С,С-В 3 - 20 км - преимущественно облачно 752 754 +1.4 74% +6.9° 600 м - - - -
06:00 +10.8° С,С-В 3 - 20 км - облачно 751 752 +1.2 72% +6° 600 м - Влажная (без луж) - -
03:00 +11° С,С-В 3 - 20 км - облачно 750 751 +1.1 72% +6.2° 600 м - - - -
00:00 +11.3° С,С-В 3 - 20 км - облачно 748 750 +1.4 80% +7.9° 1 км - - - -
Понедельник, 13 Августа
Время местн. Темп Ветер Видим Явления Облачность нижн/средн/верх Атм. давл. Влжн Точка росы ВНГО R Сост. почвы Tg s
Напр Скр Прв ур.ст ур.м изм
21:00 +12.3° С,С-В 4 - 20 км - преимущественно облачно 747 749 +1.1 82% +9.3° 1 км - - - -
18:00 +13.4° С 2 - 20 км - облачно с прояснениями 746 748 +1.6 84% +10.7° 1 км - - - -
15:00 +14.3° З,С-З 4 - 20 км небо без изменений {ливневые осадки} облачно с прояснениями 744 746 +1.5 84% +11.7° 1 км - - - -
12:00 +11.9° С 3 - 4 км слабый ливневый дождь преимущественно облачно 743 745 +1.7 88% +9.9° 600 м - - - -
09:00 +13° С 3 - 20 км - облачно 741 743 -0.4 86% +10.8° 1 км - - - -
06:00 +12.3° С 4 - 10 км - облачно 742 743 -1.4 93% +11.2° 600 м - Влажная (без луж) - -
03:00 +13.3° С 3 - 10 км - облачно 743 745 -2.3 91% +11.8° 600 м - - - -
00:00 +13.9° С-В 3 - 20 км - облачно 745 747 -2 90% +12.3° 600 м - - - -
Воскресенье, 12 Августа
Время местн. Темп Ветер Видим Явления Облачность нижн/средн/верх Атм. давл. Влжн Точка росы ВНГО R Сост. почвы Tg s
Напр Скр Прв ур.ст ур.м изм
21:00 +14.5° В,Ю-В 3 - 20 км - облачно 747 749 -1.6 78% +10.7° 600 м - - - -
18:00 +16° Ю,Ю-З 3 - 20 км - преимущественно облачно 749 750 -1.4 68% +10.1° 1 км - - - -
15:00 +17.5° Ю,Ю-З 5 - 20 км - переменная облачность 750 752 -1 62% +10.1° 1 км - - - -
12:00 +14.2° Ю,Ю-З 5 - 20 км - переменная облачность 751 753 -0.8 79% +10.6° 1 км - - - -
09:00 +14.7° Ю-З 4 - 20 км - облачно с прояснениями 752 754 -0.6 77% +10.8° 1 км - - - -
06:00 +12.8° З,Ю-З 5 - 20 км - преимущественно облачно 753 754 -0.4 83% +9.9° 1 км - Влажная (без луж) - -
03:00 +12.2° Ю-З 4 - 20 км - переменная облачность 753 755 0 84% +9.5° - - - - -
00:00 +12.4° Ю-З 5 - 20 км - переменная облачность 753 755 +0.3 82% +9.4° более 2.5 км - - - -
Суббота, 11 Августа
Время местн. Темп Ветер Видим Явления Облачность нижн/средн/верх Атм. давл. Влжн Точка росы ВНГО R Сост. почвы Tg s
Напр Скр Прв ур.ст ур.м изм
21:00 +14.8° Ю-З 6 - 20 км - переменная облачность 753 754 +0.1 78% +11.1° 1 км - - - -
18:00 +17.7° Ю-З 7 - 20 км - облачно с прояснениями 753 754 -1.1 74% +13.1° 1 км - - - -